createdAt,value
2023-01-19T00:01:10.238Z,8.08
2023-01-19T00:03:37.529Z,7.81
2023-01-19T00:06:08.110Z,8.08
2023-01-19T00:08:39.135Z,8.01
2023-01-19T00:11:07.075Z,8.04
2023-01-19T00:13:38.993Z,8.04
2023-01-19T00:16:08.821Z,8.07
2023-01-19T00:18:38.497Z,7.99
2023-01-19T00:21:05.861Z,8.04
2023-01-19T00:23:35.197Z,7.83
2023-01-19T00:26:02.394Z,7.84
2023-01-19T00:28:29.573Z,7.76
2023-01-19T00:30:59.037Z,7.98
2023-01-19T00:33:28.780Z,7.98
2023-01-19T00:36:00.837Z,8.01
2023-01-19T00:38:32.686Z,8.09
2023-01-19T00:41:02.191Z,8.09
2023-01-19T00:43:29.306Z,8.20
2023-01-19T00:45:56.535Z,8.16
2023-01-19T00:48:23.899Z,8.25
2023-01-19T00:50:51.085Z,8.28
2023-01-19T00:53:18.394Z,8.32
2023-01-19T00:55:45.620Z,8.31
2023-01-19T00:58:12.754Z,8.25
2023-01-19T01:00:40.021Z,8.24
2023-01-19T01:03:10.024Z,8.22
2023-01-19T01:05:41.278Z,8.11
2023-01-19T01:08:08.464Z,8.04
2023-01-19T01:10:38.190Z,7.83
2023-01-19T01:13:20.523Z,7.91
2023-01-19T01:15:51.276Z,8.05
2023-01-19T01:18:18.519Z,8.07
2023-01-19T01:20:47.820Z,8.07
2023-01-19T01:23:15.217Z,8.09
2023-01-19T01:25:42.654Z,8.12
2023-01-19T01:28:10.398Z,8.20
2023-01-19T01:30:41.019Z,8.15
2023-01-19T01:33:11.825Z,8.20
2023-01-19T01:35:41.771Z,8.26
2023-01-19T01:38:11.761Z,8.24
2023-01-19T01:40:43.078Z,8.22
2023-01-19T01:43:14.712Z,8.21
2023-01-19T01:45:45.000Z,8.12
2023-01-19T01:48:30.440Z,8.20
2023-01-19T01:51:20.616Z,8.25
2023-01-19T01:53:52.379Z,8.29
2023-01-19T01:56:29.275Z,8.34
2023-01-19T01:59:01.576Z,8.24
2023-01-19T02:01:47.764Z,8.28
2023-01-19T02:04:15.077Z,8.20
2023-01-19T02:07:05.823Z,8.15
2023-01-19T02:09:54.796Z,8.21
2023-01-19T02:12:43.687Z,8.16
2023-01-19T02:15:20.216Z,8.34
2023-01-19T02:17:48.186Z,8.39
2023-01-19T02:20:20.741Z,8.35
2023-01-19T02:22:51.864Z,8.28
2023-01-19T02:25:22.200Z,8.14
2023-01-19T02:27:50.413Z,8.21
2023-01-19T02:30:18.301Z,7.94
2023-01-19T02:32:45.831Z,8.05
2023-01-19T02:35:13.279Z,8.24
2023-01-19T02:37:44.468Z,7.95
2023-01-19T02:40:15.246Z,7.91
2023-01-19T02:42:47.070Z,7.87
2023-01-19T02:45:19.766Z,7.73
2023-01-19T02:47:49.533Z,7.87
2023-01-19T02:50:49.923Z,7.81
2023-01-19T02:53:51.352Z,7.73
2023-01-19T02:56:32.805Z,7.77
2023-01-19T02:59:06.150Z,7.88
2023-01-19T03:01:51.454Z,7.88
2023-01-19T03:04:30.032Z,7.81
2023-01-19T03:07:09.326Z,7.86
2023-01-19T03:09:49.703Z,7.88
2023-01-19T03:12:40.709Z,7.77
2023-01-19T03:15:16.190Z,7.66
2023-01-19T03:17:49.770Z,7.70
2023-01-19T03:20:22.637Z,7.80
2023-01-19T03:22:56.236Z,7.70
2023-01-19T03:25:26.331Z,7.62
2023-01-19T03:27:56.995Z,7.76
2023-01-19T03:30:39.313Z,7.76
2023-01-19T03:33:13.050Z,7.59
2023-01-19T03:35:45.998Z,7.40
2023-01-19T03:38:16.730Z,7.49
2023-01-19T03:40:45.570Z,7.45
2023-01-19T03:43:16.786Z,7.56
2023-01-19T03:45:47.508Z,7.45
2023-01-19T03:48:14.731Z,7.57
2023-01-19T03:50:41.981Z,7.74
2023-01-19T03:53:11.850Z,7.49
2023-01-19T03:55:42.336Z,7.55
2023-01-19T03:58:10.220Z,7.57
2023-01-19T04:00:40.521Z,7.46
2023-01-19T04:03:17.031Z,7.52
2023-01-19T04:05:45.197Z,7.56
2023-01-19T04:08:13.101Z,7.39
2023-01-19T04:10:42.580Z,7.32
2023-01-19T04:13:12.346Z,7.35
2023-01-19T04:15:42.035Z,7.45
2023-01-19T04:18:11.928Z,7.32
2023-01-19T04:20:39.102Z,7.33
2023-01-19T04:23:06.278Z,7.32
2023-01-19T04:25:33.557Z,7.39
2023-01-19T04:28:00.775Z,7.38
2023-01-19T04:30:30.196Z,7.42
2023-01-19T04:32:59.818Z,7.38
2023-01-19T04:35:27.360Z,7.26
2023-01-19T04:37:56.700Z,7.55
2023-01-19T04:40:24.643Z,7.19
2023-01-19T04:42:54.469Z,7.16
2023-01-19T04:45:21.689Z,7.35
2023-01-19T04:47:50.875Z,7.32
2023-01-19T04:50:18.110Z,7.32
2023-01-19T04:52:47.031Z,7.09
2023-01-19T04:55:14.306Z,6.91
2023-01-19T04:57:41.980Z,7.04
2023-01-19T05:00:12.029Z,6.88
2023-01-19T05:02:39.501Z,6.94
2023-01-19T05:05:06.913Z,7.00
2023-01-19T05:07:35.107Z,6.67
2023-01-19T05:10:02.333Z,6.71
2023-01-19T05:12:29.480Z,6.61
2023-01-19T05:14:59.241Z,6.46
2023-01-19T05:17:26.498Z,6.61
2023-01-19T05:19:55.825Z,6.60
2023-01-19T05:22:22.960Z,6.53
2023-01-19T05:24:52.386Z,6.50
2023-01-19T05:27:19.524Z,6.56
2023-01-19T05:29:46.691Z,6.52
2023-01-19T05:32:13.949Z,6.53
2023-01-19T05:34:41.242Z,6.58
2023-01-19T05:37:08.643Z,6.30
2023-01-19T05:39:35.921Z,6.57
2023-01-19T05:42:05.618Z,6.69
2023-01-19T05:44:32.746Z,6.79
2023-01-19T05:47:00.036Z,6.63
2023-01-19T05:49:27.441Z,6.56
2023-01-19T05:51:57.210Z,6.66
2023-01-19T05:54:24.450Z,6.77
2023-01-19T05:56:51.550Z,6.64
2023-01-19T05:59:24.100Z,6.94
2023-01-19T06:01:52.170Z,6.70
2023-01-19T06:04:20.557Z,6.49
2023-01-19T06:06:48.885Z,6.33
2023-01-19T06:09:17.389Z,6.43
2023-01-19T06:11:45.645Z,6.43
2023-01-19T06:14:13.359Z,6.28
2023-01-19T06:16:40.911Z,6.19
2023-01-19T06:19:08.122Z,6.22
2023-01-19T06:21:39.988Z,6.22
2023-01-19T06:24:07.332Z,6.18
2023-01-19T06:26:34.434Z,6.08
2023-01-19T06:29:01.612Z,6.02
2023-01-19T06:31:28.826Z,6.32
2023-01-19T06:33:56.097Z,6.43
2023-01-19T06:36:25.369Z,6.43
2023-01-19T06:38:54.753Z,6.32
2023-01-19T06:41:24.404Z,6.43
2023-01-19T06:43:53.886Z,6.44
2023-01-19T06:46:21.112Z,6.67
2023-01-19T06:48:48.285Z,6.47
2023-01-19T06:51:15.449Z,6.57
2023-01-19T06:53:45.366Z,6.69
2023-01-19T06:56:12.620Z,6.49
2023-01-19T06:58:43.401Z,6.50
2023-01-19T07:01:10.918Z,6.47
2023-01-19T07:03:43.006Z,6.47
2023-01-19T07:06:10.537Z,6.25
2023-01-19T07:08:40.025Z,6.06
2023-01-19T07:11:22.212Z,6.12
2023-01-19T07:13:55.698Z,6.26
2023-01-19T07:16:25.926Z,6.04
2023-01-19T07:18:55.497Z,6.23
2023-01-19T07:21:23.250Z,6.12
2023-01-19T07:23:55.262Z,6.25
2023-01-19T07:26:25.086Z,6.26
2023-01-19T07:28:52.762Z,5.98
2023-01-19T07:31:20.241Z,5.97
2023-01-19T07:33:47.504Z,5.91
2023-01-19T07:36:14.739Z,5.90
2023-01-19T07:38:41.900Z,5.71
2023-01-19T07:41:10.369Z,5.63
2023-01-19T07:43:40.000Z,5.67
2023-01-19T07:46:08.445Z,5.68
2023-01-19T07:48:35.693Z,5.83
2023-01-19T07:51:27.990Z,5.37
2023-01-19T07:53:55.206Z,5.46
2023-01-19T07:56:24.273Z,5.37
2023-01-19T07:58:52.622Z,5.53
2023-01-19T08:01:19.953Z,5.75
2023-01-19T08:03:52.646Z,5.79
2023-01-19T08:06:24.480Z,5.60
2023-01-19T08:08:54.312Z,5.84
2023-01-19T08:11:21.520Z,5.56
2023-01-19T08:14:17.432Z,5.83
2023-01-19T08:16:44.745Z,5.73
2023-01-19T08:19:11.902Z,5.57
2023-01-19T08:21:39.160Z,5.35
2023-01-19T08:24:06.641Z,5.47
2023-01-19T08:26:35.245Z,5.20
2023-01-19T08:29:05.510Z,5.50
2023-01-19T08:31:32.825Z,5.30
2023-01-19T08:34:02.346Z,5.29
2023-01-19T08:36:29.581Z,5.57
2023-01-19T08:38:59.138Z,5.73
2023-01-19T08:41:26.885Z,5.71
2023-01-19T08:43:54.053Z,5.56
2023-01-19T08:46:21.935Z,5.08
2023-01-19T08:48:51.499Z,5.35
2023-01-19T08:51:19.422Z,5.51
2023-01-19T08:53:46.640Z,5.20
2023-01-19T08:56:14.502Z,5.46
2023-01-19T08:58:46.739Z,5.44
2023-01-19T09:01:20.654Z,5.71
2023-01-19T09:03:53.533Z,5.57
2023-01-19T09:06:24.428Z,5.39
2023-01-19T09:08:51.594Z,5.27
2023-01-19T09:11:23.281Z,5.48
2023-01-19T09:13:52.613Z,5.35
2023-01-19T09:16:19.802Z,5.43
2023-01-19T09:18:46.992Z,5.33
2023-01-19T09:21:15.186Z,5.57
2023-01-19T09:23:42.558Z,5.39
2023-01-19T09:26:10.619Z,5.25
2023-01-19T09:28:38.424Z,5.27
2023-01-19T09:31:07.864Z,5.37
2023-01-19T09:33:35.775Z,5.37
2023-01-19T09:36:03.078Z,5.42
2023-01-19T09:38:33.123Z,5.58
2023-01-19T09:41:01.062Z,5.36
2023-01-19T09:43:40.030Z,5.46
2023-01-19T09:46:14.369Z,5.60
2023-01-19T09:48:52.181Z,5.57
2023-01-19T09:51:21.521Z,5.68
2023-01-19T09:53:51.671Z,5.85
2023-01-19T09:56:22.662Z,5.83
2023-01-19T09:58:51.376Z,5.63
2023-01-19T10:01:34.804Z,5.98
2023-01-19T10:04:28.521Z,5.87
2023-01-19T10:07:10.654Z,5.88
2023-01-19T10:10:02.903Z,5.68
2023-01-19T10:12:53.712Z,5.78
2023-01-19T10:15:54.147Z,5.29
2023-01-19T10:18:43.263Z,5.46
2023-01-19T10:21:23.148Z,4.79
2023-01-19T10:23:52.761Z,5.11
2023-01-19T10:26:49.545Z,5.00
2023-01-19T10:29:28.270Z,5.19
2023-01-19T10:32:07.068Z,5.09
2023-01-19T10:34:36.850Z,5.15
2023-01-19T10:37:31.305Z,5.20
2023-01-19T10:40:09.785Z,4.91
2023-01-19T10:42:38.791Z,5.08
2023-01-19T10:45:23.963Z,4.99
2023-01-19T10:47:54.029Z,4.91
2023-01-19T10:50:33.100Z,5.13
2023-01-19T10:53:06.258Z,4.82
2023-01-19T10:55:39.888Z,4.92
2023-01-19T10:58:30.203Z,4.84
2023-01-19T11:01:25.854Z,4.81
2023-01-19T11:03:54.464Z,4.85
2023-01-19T11:06:29.116Z,4.53
2023-01-19T11:09:18.632Z,4.93
2023-01-19T11:11:51.599Z,4.64
2023-01-19T11:14:23.086Z,5.16
2023-01-19T11:16:56.656Z,5.22
2023-01-19T11:19:32.545Z,5.22
2023-01-19T11:22:34.343Z,4.93
2023-01-19T11:25:04.611Z,5.20
2023-01-19T11:27:37.601Z,5.04
2023-01-19T11:30:16.262Z,5.20
2023-01-19T11:32:46.083Z,5.33
2023-01-19T11:35:39.633Z,5.47
2023-01-19T11:38:12.854Z,5.32
2023-01-19T11:40:46.621Z,5.15
2023-01-19T11:43:14.071Z,5.00
2023-01-19T11:45:41.551Z,5.06
2023-01-19T11:48:22.641Z,5.30
2023-01-19T11:50:52.303Z,4.95
2023-01-19T11:53:30.781Z,5.19
2023-01-19T11:56:03.165Z,5.15
2023-01-19T11:58:33.269Z,5.22
2023-01-19T12:01:16.209Z,5.22
2023-01-19T12:03:48.996Z,5.04
2023-01-19T12:06:23.846Z,5.09
2023-01-19T12:09:01.854Z,4.89
2023-01-19T12:11:40.615Z,4.99
2023-01-19T12:14:19.585Z,4.89
2023-01-19T12:16:46.831Z,4.64
2023-01-19T12:19:18.489Z,4.81
2023-01-19T12:21:49.221Z,4.98
2023-01-19T12:24:23.620Z,4.54
2023-01-19T12:27:02.040Z,5.06
2023-01-19T12:29:33.771Z,4.96
2023-01-19T12:32:20.732Z,4.77
2023-01-19T12:34:51.858Z,4.91
2023-01-19T12:37:31.040Z,4.82
2023-01-19T12:40:01.557Z,4.91
2023-01-19T12:42:29.378Z,4.75
2023-01-19T12:45:09.153Z,5.12
2023-01-19T12:47:37.100Z,5.04
2023-01-19T12:50:13.169Z,4.98
2023-01-19T12:52:48.005Z,4.96
2023-01-19T12:55:15.156Z,5.15
2023-01-19T12:57:55.591Z,5.04
2023-01-19T13:00:22.787Z,5.00
2023-01-19T13:02:52.037Z,5.05
2023-01-19T13:05:22.217Z,5.09
2023-01-19T13:08:11.399Z,5.05
2023-01-19T13:11:00.879Z,5.22
2023-01-19T13:13:33.471Z,5.39
2023-01-19T13:16:19.309Z,5.15
2023-01-19T13:18:47.973Z,4.84
2023-01-19T13:21:28.034Z,4.72
2023-01-19T13:23:59.111Z,4.98
2023-01-19T13:26:33.240Z,5.11
2023-01-19T13:29:07.226Z,5.05
2023-01-19T13:31:36.320Z,5.02
2023-01-19T13:34:11.010Z,4.96
2023-01-19T13:36:46.462Z,4.98
2023-01-19T13:39:24.678Z,5.09
2023-01-19T13:41:56.095Z,5.09
2023-01-19T13:44:47.205Z,5.16
2023-01-19T13:47:22.429Z,5.00
2023-01-19T13:49:57.893Z,5.15
2023-01-19T13:52:27.698Z,5.13
2023-01-19T13:54:55.979Z,5.30
2023-01-19T13:57:32.172Z,5.22
2023-01-19T14:00:14.615Z,5.35
2023-01-19T14:03:02.718Z,5.53
2023-01-19T14:05:36.975Z,5.37
2023-01-19T14:08:18.065Z,5.22
2023-01-19T14:11:02.438Z,5.05
2023-01-19T14:13:34.877Z,4.92
2023-01-19T14:16:11.271Z,5.08
2023-01-19T14:18:38.577Z,4.91
2023-01-19T14:21:08.870Z,4.88
2023-01-19T14:24:08.561Z,4.98
2023-01-19T14:26:39.121Z,5.06
2023-01-19T14:29:33.788Z,4.98
2023-01-19T14:32:15.035Z,5.08
2023-01-19T14:34:44.963Z,5.06
2023-01-19T14:37:23.073Z,4.95
2023-01-19T14:39:50.309Z,4.92
2023-01-19T14:42:23.534Z,4.96
2023-01-19T14:44:53.205Z,5.23
2023-01-19T14:47:35.592Z,5.30
2023-01-19T14:50:23.531Z,5.16
2023-01-19T14:53:05.590Z,4.87
2023-01-19T14:55:48.151Z,5.08
2023-01-19T14:58:18.649Z,5.20
2023-01-19T15:00:47.408Z,5.13
2023-01-19T15:03:17.125Z,5.05
2023-01-19T15:05:46.113Z,5.11
2023-01-19T15:08:22.964Z,4.96
2023-01-19T15:10:52.423Z,5.06
2023-01-19T15:13:21.982Z,5.09
2023-01-19T15:15:50.094Z,4.95
2023-01-19T15:18:22.473Z,4.89
2023-01-19T15:20:51.715Z,5.02
2023-01-19T15:23:21.261Z,4.95
2023-01-19T15:25:49.769Z,5.04
2023-01-19T15:28:20.376Z,5.05
2023-01-19T15:30:47.660Z,4.93
2023-01-19T15:33:20.603Z,5.02
2023-01-19T15:35:48.429Z,5.05
2023-01-19T15:38:18.096Z,4.98
2023-01-19T15:40:48.000Z,4.95
2023-01-19T15:43:21.460Z,5.09
2023-01-19T15:46:02.259Z,5.08
2023-01-19T15:48:29.518Z,4.77
2023-01-19T15:51:01.257Z,4.79
2023-01-19T15:53:30.708Z,4.89
2023-01-19T15:56:00.269Z,4.85
2023-01-19T15:58:27.518Z,4.87
2023-01-19T16:00:57.087Z,4.77
2023-01-19T16:03:25.856Z,4.79
2023-01-19T16:05:55.390Z,4.89
2023-01-19T16:08:24.625Z,4.85
2023-01-19T16:10:51.765Z,4.88
2023-01-19T16:13:18.916Z,4.84
2023-01-19T16:15:46.066Z,4.79
2023-01-19T16:18:13.433Z,4.82
2023-01-19T16:20:40.609Z,4.72
2023-01-19T16:23:15.630Z,4.68
2023-01-19T16:25:54.574Z,4.62
2023-01-19T16:28:21.758Z,4.64
2023-01-19T16:30:51.851Z,4.65
2023-01-19T16:33:19.334Z,4.67
2023-01-19T16:35:46.542Z,4.62
2023-01-19T16:38:13.700Z,4.57
2023-01-19T16:40:43.401Z,4.92
2023-01-19T16:43:12.976Z,4.65
2023-01-19T16:46:00.235Z,4.46
2023-01-19T16:48:27.872Z,4.54
2023-01-19T16:51:00.396Z,4.57
2023-01-19T16:53:28.814Z,4.64
2023-01-19T16:55:56.264Z,4.77
2023-01-19T16:58:23.814Z,4.71
2023-01-19T17:00:51.118Z,4.50
2023-01-19T17:03:20.677Z,4.34
2023-01-19T17:05:51.862Z,4.20
2023-01-19T17:08:22.911Z,4.13
2023-01-19T17:10:52.335Z,4.54
2023-01-19T17:13:21.793Z,4.57
2023-01-19T17:15:48.998Z,4.51
2023-01-19T17:18:16.246Z,4.65
2023-01-19T17:20:48.295Z,4.57
2023-01-19T17:23:15.738Z,4.58
2023-01-19T17:25:42.871Z,4.70
2023-01-19T17:28:10.016Z,4.71
2023-01-19T17:30:37.279Z,4.60
2023-01-19T17:33:04.553Z,4.68
2023-01-19T17:35:34.429Z,4.40
2023-01-19T17:38:01.611Z,4.62
2023-01-19T17:40:32.226Z,4.60
2023-01-19T17:42:59.397Z,4.64
2023-01-19T17:45:26.531Z,4.67
2023-01-19T17:47:53.718Z,4.47
2023-01-19T17:50:22.885Z,4.47
2023-01-19T17:52:50.037Z,4.58
2023-01-19T17:55:18.400Z,4.72
2023-01-19T17:57:45.673Z,4.57
2023-01-19T18:00:15.635Z,4.61
2023-01-19T18:02:43.370Z,4.57
2023-01-19T18:05:12.668Z,4.61
2023-01-19T18:07:40.270Z,4.54
2023-01-19T18:10:08.398Z,4.81
2023-01-19T18:12:38.250Z,4.56
2023-01-19T18:15:08.945Z,4.58
2023-01-19T18:17:36.104Z,4.43
2023-01-19T18:20:04.494Z,4.40
2023-01-19T18:22:33.902Z,4.53
2023-01-19T18:25:01.669Z,4.43
2023-01-19T18:27:29.483Z,4.53
2023-01-19T18:29:59.195Z,4.36
2023-01-19T18:32:52.184Z,4.43
2023-01-19T18:35:23.060Z,4.19
2023-01-19T18:37:50.286Z,4.16
2023-01-19T18:40:17.849Z,4.29
2023-01-19T18:42:47.691Z,4.28
2023-01-19T18:45:17.167Z,4.20
2023-01-19T18:47:46.877Z,4.23
2023-01-19T18:50:14.441Z,4.24
2023-01-19T18:52:45.738Z,4.13
2023-01-19T18:55:38.363Z,4.22
2023-01-19T18:58:07.072Z,4.09
2023-01-19T19:00:34.269Z,4.12
2023-01-19T19:03:01.574Z,4.03
2023-01-19T19:05:28.781Z,4.09
2023-01-19T19:07:56.060Z,4.06
2023-01-19T19:10:23.227Z,4.01
2023-01-19T19:12:50.476Z,3.96
2023-01-19T19:15:17.754Z,3.89
2023-01-19T19:17:44.970Z,3.79
2023-01-19T19:20:13.033Z,3.81
2023-01-19T19:22:42.801Z,3.85
2023-01-19T19:25:10.082Z,3.84
2023-01-19T19:27:41.119Z,3.72
2023-01-19T19:30:09.136Z,3.72
2023-01-19T19:32:38.560Z,3.74
2023-01-19T19:35:06.041Z,3.64
2023-01-19T19:37:33.205Z,3.67
2023-01-19T19:40:00.532Z,3.63
2023-01-19T19:42:30.089Z,3.55
2023-01-19T19:44:57.291Z,3.70
2023-01-19T19:47:24.572Z,3.77
2023-01-19T19:49:51.759Z,3.78
2023-01-19T19:52:21.257Z,3.88
2023-01-19T19:54:48.984Z,3.82
2023-01-19T19:57:16.160Z,3.92
2023-01-19T19:59:43.361Z,3.96
2023-01-19T20:02:12.312Z,3.95
2023-01-19T20:04:40.302Z,3.98
2023-01-19T20:07:07.482Z,3.98
2023-01-19T20:09:37.228Z,4.03
2023-01-19T20:12:08.094Z,4.12
2023-01-19T20:14:35.297Z,4.12
2023-01-19T20:17:05.766Z,4.07
2023-01-19T20:19:32.939Z,4.22
2023-01-19T20:22:04.935Z,4.24
2023-01-19T20:24:32.204Z,4.19
2023-01-19T20:27:01.410Z,4.24
2023-01-19T20:29:30.820Z,4.30
2023-01-19T20:32:00.119Z,4.13
2023-01-19T20:34:33.025Z,4.20
2023-01-19T20:37:01.746Z,3.99
2023-01-19T20:39:33.151Z,4.07
2023-01-19T20:42:01.666Z,4.29
2023-01-19T20:44:30.995Z,4.36
2023-01-19T20:46:58.240Z,4.33
2023-01-19T20:49:25.400Z,4.32
2023-01-19T20:51:53.384Z,4.39
2023-01-19T20:54:27.380Z,4.46
2023-01-19T20:56:54.611Z,4.46
2023-01-19T20:59:23.996Z,4.50
2023-01-19T21:01:53.727Z,4.37
2023-01-19T21:04:20.984Z,4.47
2023-01-19T21:06:48.488Z,4.51
2023-01-19T21:09:15.672Z,4.54
2023-01-19T21:11:42.857Z,4.54
2023-01-19T21:14:10.516Z,4.41
2023-01-19T21:16:37.869Z,4.44
2023-01-19T21:19:09.655Z,4.41
2023-01-19T21:21:38.962Z,4.40
2023-01-19T21:24:09.729Z,4.43
2023-01-19T21:26:37.836Z,4.41
2023-01-19T21:29:04.987Z,4.44
2023-01-19T21:31:32.314Z,4.44
2023-01-19T21:33:59.725Z,4.57
2023-01-19T21:36:27.168Z,4.53
2023-01-19T21:39:00.300Z,4.56
2023-01-19T21:41:30.252Z,4.67
2023-01-19T21:44:00.748Z,4.67
2023-01-19T21:46:33.095Z,4.70
2023-01-19T21:49:04.552Z,4.75
2023-01-19T21:51:36.890Z,4.81
2023-01-19T21:54:08.224Z,4.74
2023-01-19T21:56:38.077Z,4.84
2023-01-19T21:59:05.519Z,4.70
2023-01-19T22:01:33.874Z,4.72
2023-01-19T22:04:01.317Z,4.70
2023-01-19T22:06:29.280Z,4.70
2023-01-19T22:09:00.714Z,4.47
2023-01-19T22:11:28.662Z,4.16
2023-01-19T22:13:56.128Z,4.12
2023-01-19T22:16:23.761Z,3.92
2023-01-19T22:18:59.498Z,4.02
2023-01-19T22:21:29.915Z,4.22
2023-01-19T22:24:01.636Z,4.17
2023-01-19T22:26:29.989Z,4.32
2023-01-19T22:29:02.209Z,3.67
2023-01-19T22:31:30.692Z,3.89
2023-01-19T22:33:58.348Z,3.86
2023-01-19T22:36:30.961Z,3.57
2023-01-19T22:39:09.295Z,3.81
2023-01-19T22:41:39.453Z,3.85
2023-01-19T22:44:10.281Z,3.96
2023-01-19T22:46:40.513Z,3.92
2023-01-19T22:49:12.621Z,3.93
2023-01-19T22:51:44.745Z,4.01
2023-01-19T22:54:12.711Z,3.74
2023-01-19T22:56:40.921Z,3.60
2023-01-19T22:59:10.940Z,3.65
2023-01-19T23:01:45.780Z,3.50
2023-01-19T23:04:14.900Z,3.53
2023-01-19T23:06:42.795Z,3.75
2023-01-19T23:09:15.505Z,3.58
2023-01-19T23:11:45.168Z,3.74
2023-01-19T23:14:16.860Z,3.79
2023-01-19T23:16:44.513Z,3.70
2023-01-19T23:19:14.466Z,3.30
2023-01-19T23:21:44.643Z,3.38
2023-01-19T23:24:15.263Z,3.40
2023-01-19T23:26:42.378Z,3.41
2023-01-19T23:29:16.011Z,3.43
2023-01-19T23:31:47.309Z,3.43
2023-01-19T23:34:17.427Z,3.58
2023-01-19T23:36:45.587Z,3.47
2023-01-19T23:39:16.960Z,3.31
2023-01-19T23:41:48.996Z,3.36
2023-01-19T23:44:18.953Z,3.37
2023-01-19T23:46:46.742Z,3.27
2023-01-19T23:49:13.999Z,3.26
2023-01-19T23:51:41.819Z,3.43
2023-01-19T23:54:12.389Z,3.28
2023-01-19T23:56:42.873Z,3.19
2023-01-19T23:59:15.357Z,3.28
